createdAt,value
2019-04-11T00:00:23.592Z,4.60
2019-04-11T00:02:53.169Z,4.60
2019-04-11T00:05:22.979Z,4.60
2019-04-11T00:07:52.220Z,4.60
2019-04-11T00:10:21.032Z,4.50
2019-04-11T00:12:51.136Z,4.50
2019-04-11T00:15:20.322Z,4.50
2019-04-11T00:17:50.197Z,4.50
2019-04-11T00:20:20.102Z,4.50
2019-04-11T00:22:49.920Z,4.40
2019-04-11T00:25:19.811Z,4.40
2019-04-11T00:27:48.937Z,4.40
2019-04-11T00:30:18.243Z,4.30
2019-04-11T00:32:46.886Z,4.30
2019-04-11T00:35:15.590Z,4.30
2019-04-11T00:37:45.216Z,4.30
2019-04-11T00:40:15.154Z,4.20
2019-04-11T00:42:45.044Z,4.20
2019-04-11T00:45:15.753Z,4.20
2019-04-11T00:47:44.978Z,4.10
2019-04-11T00:50:14.780Z,4.10
2019-04-11T00:52:43.966Z,4.00
2019-04-11T00:55:13.367Z,4.00
2019-04-11T00:57:43.161Z,3.90
2019-04-11T01:00:13.127Z,3.90
2019-04-11T01:02:43.269Z,3.90
2019-04-11T01:05:12.942Z,3.80
2019-04-11T01:07:42.824Z,3.80
2019-04-11T01:10:12.184Z,3.80
2019-04-11T01:12:40.899Z,3.70
2019-04-11T01:15:11.438Z,3.70
2019-04-11T01:17:41.234Z,3.70
2019-04-11T01:20:11.245Z,3.70
2019-04-11T01:22:40.502Z,3.60
2019-04-11T01:25:10.456Z,3.60
2019-04-11T01:27:39.965Z,3.60
2019-04-11T01:30:11.938Z,3.50
2019-04-11T01:32:40.878Z,3.50
2019-04-11T01:35:09.575Z,3.40
2019-04-11T01:37:39.850Z,3.50
2019-04-11T01:40:09.840Z,3.40
2019-04-11T01:42:39.644Z,3.40
2019-04-11T01:45:09.548Z,3.40
2019-04-11T01:47:46.898Z,3.40
2019-04-11T01:50:17.431Z,3.40
2019-04-11T01:52:46.681Z,3.30
2019-04-11T01:55:16.390Z,3.30
2019-04-11T01:57:45.027Z,3.30
2019-04-11T02:00:17.708Z,3.30
2019-04-11T02:02:56.984Z,3.30
2019-04-11T02:05:27.444Z,3.30
2019-04-11T02:07:56.157Z,3.20
2019-04-11T02:10:24.809Z,3.20
2019-04-11T02:12:53.405Z,3.20
2019-04-11T02:15:24.026Z,3.20
2019-04-11T02:17:52.956Z,3.20
2019-04-11T02:20:21.539Z,3.20
2019-04-11T02:22:52.866Z,3.20
2019-04-11T02:25:24.727Z,3.20
2019-04-11T02:27:53.450Z,3.20
2019-04-11T02:30:22.742Z,3.20
2019-04-11T02:32:53.437Z,3.10
2019-04-11T02:35:23.806Z,3.10
2019-04-11T02:37:54.699Z,3.10
2019-04-11T02:40:24.558Z,3.10
2019-04-11T02:42:54.901Z,3.10
2019-04-11T02:45:36.318Z,3.10
2019-04-11T02:47:56.341Z,3.10
2019-04-11T02:50:26.488Z,3.10
2019-04-11T02:52:56.678Z,3.10
2019-04-11T02:55:25.458Z,3.20
2019-04-11T02:57:54.415Z,3.10
2019-04-11T03:00:24.435Z,3.20
2019-04-11T03:02:53.560Z,3.10
2019-04-11T03:05:22.582Z,3.10
2019-04-11T03:07:51.548Z,3.10
2019-04-11T03:10:21.010Z,3.10
2019-04-11T03:12:50.147Z,3.10
2019-04-11T03:15:32.097Z,3.10
2019-04-11T03:17:54.848Z,3.10
2019-04-11T03:20:28.989Z,3.10
2019-04-11T03:22:57.025Z,3.10
2019-04-11T03:25:22.552Z,3.00
2019-04-11T03:27:51.734Z,3.00
2019-04-11T03:30:34.827Z,3.00
2019-04-11T03:38:18.803Z,3.00
2019-04-11T03:40:43.837Z,3.00
2019-04-11T03:43:08.895Z,3.00
2019-04-11T03:45:47.992Z,2.90
2019-04-11T03:48:10.501Z,2.90
2019-04-11T03:50:30.519Z,2.90
2019-04-11T03:53:00.102Z,2.90
2019-04-11T03:55:30.718Z,2.90
2019-04-11T03:58:01.011Z,2.90
2019-04-11T04:00:35.446Z,2.90
2019-04-11T04:03:01.491Z,2.90
2019-04-11T04:05:36.175Z,2.90
2019-04-11T04:08:03.951Z,2.80
2019-04-11T04:10:34.210Z,2.80
2019-04-11T04:13:04.988Z,2.80
2019-04-11T04:15:51.578Z,2.80
2019-04-11T04:18:23.910Z,2.80
2019-04-11T04:20:57.639Z,2.80
2019-04-11T04:23:29.445Z,2.80
2019-04-11T04:26:00.862Z,2.80
2019-04-11T04:28:29.491Z,2.70
2019-04-11T04:31:00.089Z,2.70
2019-04-11T04:33:30.396Z,2.70
2019-04-11T04:36:00.209Z,2.70
2019-04-11T04:38:29.649Z,2.70
2019-04-11T04:41:09.958Z,2.70
2019-04-11T04:43:31.565Z,2.70
2019-04-11T04:46:17.327Z,2.70
2019-04-11T04:48:32.173Z,2.60
2019-04-11T04:51:07.297Z,2.60
2019-04-11T04:53:32.522Z,2.70
2019-04-11T04:56:02.711Z,2.60
2019-04-11T04:58:31.752Z,2.70
2019-04-11T05:01:01.934Z,2.70
2019-04-11T05:03:32.015Z,2.70
2019-04-11T05:06:03.366Z,2.70
2019-04-11T05:08:32.549Z,2.70
2019-04-11T05:11:02.257Z,2.70
2019-04-11T05:13:32.293Z,2.70
2019-04-11T05:16:08.569Z,2.60
2019-04-11T05:18:32.142Z,2.60
2019-04-11T05:21:01.151Z,2.70
2019-04-11T05:23:29.847Z,2.70
2019-04-11T05:25:59.978Z,2.70
2019-04-11T05:28:29.798Z,2.70
2019-04-11T05:30:58.468Z,2.70
2019-04-11T05:33:27.453Z,2.70
2019-04-11T05:35:56.388Z,2.70
2019-04-11T05:38:25.311Z,2.80
2019-04-11T05:40:54.596Z,2.80
2019-04-11T05:43:28.066Z,2.80
2019-04-11T05:45:55.073Z,2.80
2019-04-11T05:48:32.216Z,2.90
2019-04-11T05:51:00.871Z,3.00
2019-04-11T05:53:32.771Z,3.10
2019-04-11T05:56:07.106Z,3.30
2019-04-11T05:58:36.687Z,3.60
2019-04-11T06:01:14.518Z,3.90
2019-04-11T06:03:45.370Z,4.10
2019-04-11T06:06:16.252Z,4.40
2019-04-11T06:08:46.057Z,4.40
2019-04-11T06:11:22.159Z,4.50
2019-04-11T06:14:07.286Z,4.50
2019-04-11T06:16:43.613Z,4.40
2019-04-11T06:19:12.373Z,4.40
2019-04-11T06:21:42.666Z,4.30
2019-04-11T06:24:25.901Z,4.30
2019-04-11T06:27:02.382Z,4.30
2019-04-11T06:29:32.727Z,4.30
2019-04-11T06:32:03.535Z,4.30
2019-04-11T06:34:43.783Z,4.30
2019-04-11T06:37:19.943Z,4.30
2019-04-11T06:39:53.958Z,4.40
2019-04-11T06:42:31.727Z,4.40
2019-04-11T06:45:04.607Z,4.40
2019-04-11T06:47:37.825Z,4.50
2019-04-11T06:50:19.457Z,4.60
2019-04-11T06:52:48.793Z,4.60
2019-04-11T06:55:22.465Z,4.60
2019-04-11T06:57:52.729Z,4.70
2019-04-11T07:00:21.732Z,4.80
2019-04-11T07:02:52.923Z,4.80
2019-04-11T07:05:22.730Z,4.90
2019-04-11T07:07:53.631Z,4.90
2019-04-11T07:10:24.618Z,5.00
2019-04-11T07:12:55.982Z,5.10
2019-04-11T07:15:27.206Z,5.10
2019-04-11T07:18:14.013Z,5.20
2019-04-11T07:20:45.580Z,5.20
2019-04-11T07:23:32.940Z,5.30
2019-04-11T07:26:04.486Z,5.40
2019-04-11T07:28:35.752Z,5.40
2019-04-11T07:34:12.773Z,5.60
2019-04-11T07:37:00.262Z,5.60
2019-04-11T07:39:35.369Z,5.70
2019-04-11T07:42:07.059Z,5.70
2019-04-11T07:44:38.540Z,5.80
2019-04-11T07:47:17.274Z,5.90
2019-04-11T07:49:43.241Z,5.90
2019-04-11T07:52:20.448Z,6.00
2019-04-11T07:54:49.177Z,6.00
2019-04-11T07:57:31.314Z,6.10
2019-04-11T08:00:17.656Z,6.20
2019-04-11T08:02:50.322Z,6.30
2019-04-11T08:05:36.554Z,6.30
2019-04-11T08:08:23.739Z,6.40
2019-04-11T08:11:09.495Z,6.50
2019-04-11T08:13:40.799Z,6.50
2019-04-11T08:16:11.077Z,6.60
2019-04-11T08:18:41.358Z,6.70
2019-04-11T08:21:28.304Z,6.70
2019-04-11T08:23:58.578Z,6.80
2019-04-11T08:26:34.410Z,6.90
2019-04-11T08:29:09.295Z,6.90
2019-04-11T08:31:36.121Z,7.00
2019-04-11T08:34:04.979Z,7.10
2019-04-11T08:36:35.276Z,7.20
2019-04-11T08:39:06.837Z,7.20
2019-04-11T08:41:49.649Z,7.30
2019-04-11T08:44:19.423Z,7.40
2019-04-11T08:46:51.043Z,7.40
2019-04-11T08:49:29.091Z,7.50
2019-04-11T08:51:59.988Z,7.60
2019-04-11T08:54:47.971Z,7.70
2019-04-11T08:57:18.284Z,7.80
2019-04-11T08:59:57.714Z,7.90
2019-04-11T09:02:26.913Z,7.90
2019-04-11T09:05:13.107Z,8.00
2019-04-11T09:07:51.952Z,8.20
2019-04-11T09:10:40.609Z,8.20
2019-04-11T09:13:44.199Z,8.40
2019-04-11T09:16:17.263Z,8.40
2019-04-11T09:18:46.157Z,8.50
2019-04-11T09:21:16.387Z,8.60
2019-04-11T09:23:45.986Z,8.70
2019-04-11T09:26:34.008Z,8.80
2019-04-11T09:29:03.873Z,8.80
2019-04-11T09:31:34.194Z,8.90
2019-04-11T09:34:11.280Z,9.00
2019-04-11T09:36:41.847Z,9.10
2019-04-11T09:39:28.904Z,9.20
2019-04-11T09:42:14.909Z,9.20
2019-04-11T09:44:48.932Z,9.20
2019-04-11T09:47:36.252Z,9.30
2019-04-11T09:50:08.082Z,9.30
2019-04-11T09:52:45.220Z,9.40
2019-04-11T09:55:24.178Z,9.50
2019-04-11T09:57:58.646Z,9.60
2019-04-11T10:00:30.446Z,9.70
2019-04-11T10:03:00.865Z,9.90
2019-04-11T10:05:50.292Z,10.00
2019-04-11T10:08:37.276Z,10.00
2019-04-11T10:11:10.437Z,10.10
2019-04-11T10:13:57.567Z,10.10
2019-04-11T10:16:28.368Z,10.20
2019-04-11T10:19:05.515Z,10.30
2019-04-11T10:21:39.479Z,10.40
2019-04-11T10:24:22.450Z,10.40
2019-04-11T10:27:12.291Z,10.60
2019-04-11T10:29:42.626Z,10.70
2019-04-11T10:32:12.927Z,10.80
2019-04-11T10:34:59.718Z,10.80
2019-04-11T10:37:28.255Z,10.90
2019-04-11T10:39:59.845Z,11.00
2019-04-11T10:42:28.861Z,11.00
2019-04-11T10:45:15.298Z,11.10
2019-04-11T10:47:45.006Z,11.10
2019-04-11T10:50:15.855Z,11.10
2019-04-11T10:52:46.778Z,11.20
2019-04-11T10:55:19.838Z,11.30
2019-04-11T10:57:52.558Z,11.40
2019-04-11T11:00:23.034Z,11.50
2019-04-11T11:02:56.359Z,11.40
2019-04-11T11:05:30.437Z,11.40
2019-04-11T11:08:04.709Z,11.40
2019-04-11T11:10:35.473Z,11.50
2019-04-11T11:13:09.539Z,11.60
2019-04-11T11:15:39.881Z,11.70
2019-04-11T11:18:53.879Z,11.60
2019-04-11T11:21:00.328Z,11.60
2019-04-11T11:23:45.464Z,11.60
2019-04-11T11:26:22.626Z,11.60
2019-04-11T11:28:56.790Z,11.70
2019-04-11T11:31:39.049Z,11.70
2019-04-11T11:34:15.671Z,11.70
2019-04-11T11:36:47.973Z,11.70
2019-04-11T11:42:22.175Z,11.90
2019-04-11T11:44:59.330Z,11.80
2019-04-11T11:47:46.109Z,11.80
2019-04-11T11:50:20.101Z,11.90
2019-04-11T11:53:07.360Z,12.00
2019-04-11T11:55:39.506Z,12.10
2019-04-11T11:58:25.938Z,12.30
2019-04-11T12:00:57.828Z,12.40
2019-04-11T12:03:35.091Z,12.50
2019-04-11T12:06:09.586Z,12.50
2019-04-11T12:08:50.940Z,12.60
2019-04-11T12:11:19.857Z,12.60
2019-04-11T12:14:07.640Z,12.60
2019-04-11T12:16:43.994Z,12.70
2019-04-11T12:19:17.997Z,12.70
2019-04-11T12:21:47.634Z,12.60
2019-04-11T12:24:34.425Z,12.60
2019-04-11T12:27:16.741Z,12.60
2019-04-11T12:29:50.823Z,12.70
2019-04-11T12:32:30.583Z,12.70
2019-04-11T12:35:02.071Z,12.70
2019-04-11T12:37:45.435Z,12.80
2019-04-11T12:40:32.274Z,12.80
2019-04-11T12:43:02.564Z,12.90
2019-04-11T12:45:35.296Z,13.10
2019-04-11T12:48:04.850Z,13.20
2019-04-11T12:50:35.128Z,13.20
2019-04-11T12:53:05.669Z,13.30
2019-04-11T12:55:36.050Z,13.40
2019-04-11T12:58:21.373Z,13.50
2019-04-11T13:01:07.981Z,13.60
2019-04-11T13:03:50.272Z,13.60
2019-04-11T13:06:35.279Z,13.60
2019-04-11T13:09:01.120Z,13.70
2019-04-11T13:11:31.358Z,13.90
2019-04-11T13:14:19.842Z,14.10
2019-04-11T13:16:50.066Z,14.30
2019-04-11T13:19:20.272Z,14.60
2019-04-11T13:21:53.485Z,14.90
2019-04-11T13:24:23.775Z,15.20
2019-04-11T13:27:10.457Z,15.50
2019-04-11T13:29:40.735Z,15.70
2019-04-11T13:32:27.088Z,15.80
2019-04-11T13:34:57.326Z,15.90
2019-04-11T13:37:43.972Z,16.00
2019-04-11T13:40:17.142Z,16.20
2019-04-11T13:42:59.364Z,16.30
2019-04-11T13:45:29.913Z,16.40
2019-04-11T13:48:16.358Z,16.70
2019-04-11T13:50:45.370Z,16.90
2019-04-11T13:53:31.821Z,17.00
2019-04-11T13:56:00.461Z,17.20
2019-04-11T13:58:30.777Z,17.30
2019-04-11T14:00:59.700Z,17.30
2019-04-11T14:03:47.599Z,17.40
2019-04-11T14:06:19.103Z,17.60
2019-04-11T14:08:49.320Z,17.70
2019-04-11T14:11:19.666Z,17.80
2019-04-11T14:13:48.262Z,18.00
2019-04-11T14:16:24.141Z,18.10
2019-04-11T14:18:54.364Z,18.40
2019-04-11T14:21:24.635Z,18.50
2019-04-11T14:24:11.663Z,18.80
2019-04-11T14:26:42.096Z,18.80
2019-04-11T14:29:24.139Z,18.90
2019-04-11T14:31:54.670Z,18.90
2019-04-11T14:34:41.540Z,18.90
2019-04-11T14:37:11.748Z,18.90
2019-04-11T14:39:42.027Z,18.80
2019-04-11T14:42:21.198Z,18.80
2019-04-11T14:44:51.441Z,18.90
2019-04-11T14:47:27.629Z,19.00
2019-04-11T14:49:58.285Z,19.20
2019-04-11T14:52:34.551Z,19.30
2019-04-11T14:55:03.579Z,19.50
2019-04-11T14:57:53.735Z,19.70
2019-04-11T15:00:26.832Z,19.90
2019-04-11T15:03:12.393Z,19.90
2019-04-11T15:05:48.424Z,20.10
2019-04-11T15:08:21.591Z,20.30
2019-04-11T15:10:57.772Z,20.30
2019-04-11T15:13:28.035Z,20.50
2019-04-11T15:15:58.255Z,20.60
2019-04-11T15:18:27.507Z,20.80
2019-04-11T15:20:57.681Z,21.00
2019-04-11T15:23:27.899Z,21.20
2019-04-11T15:26:14.666Z,21.30
2019-04-11T15:28:47.431Z,21.20
2019-04-11T15:31:20.452Z,21.20
2019-04-11T15:33:50.698Z,21.20
2019-04-11T15:36:20.902Z,21.20
2019-04-11T15:38:51.127Z,21.20
2019-04-11T15:41:19.696Z,21.30
2019-04-11T15:43:49.911Z,21.30
2019-04-11T15:46:20.200Z,21.30
2019-04-11T15:48:53.837Z,21.40
2019-04-11T15:51:24.793Z,21.50
2019-04-11T15:54:11.568Z,21.70
2019-04-11T15:56:44.542Z,21.80
2019-04-11T15:59:14.748Z,21.90
2019-04-11T16:02:01.090Z,22.10
2019-04-11T16:04:31.297Z,22.40
2019-04-11T16:07:11.904Z,22.60
2019-04-11T16:09:42.748Z,22.60
2019-04-11T16:12:18.715Z,22.70
2019-04-11T16:14:52.135Z,22.60
2019-04-11T16:17:38.624Z,22.40
2019-04-11T16:20:08.848Z,22.50
2019-04-11T16:22:55.311Z,22.40
2019-04-11T16:25:28.850Z,22.00
2019-04-11T16:28:07.232Z,22.00
2019-04-11T16:30:39.568Z,21.80
2019-04-11T16:33:09.147Z,21.90
2019-04-11T16:35:41.846Z,22.10
2019-04-11T16:38:19.106Z,22.40
2019-04-11T16:41:05.863Z,22.60
2019-04-11T16:43:34.558Z,22.80
2019-04-11T16:46:07.449Z,22.90
2019-04-11T16:48:36.102Z,22.90
2019-04-11T16:51:05.980Z,22.70
2019-04-11T16:53:34.733Z,22.20
2019-04-11T16:56:03.354Z,21.70
2019-04-11T16:58:32.004Z,21.20
2019-04-11T17:01:00.579Z,20.90
2019-04-11T17:03:29.552Z,20.20
2019-04-11T17:05:59.750Z,19.20
2019-04-11T17:08:36.261Z,18.30
2019-04-11T17:11:09.451Z,17.70
2019-04-11T17:13:38.139Z,17.10
2019-04-11T17:16:08.486Z,16.40
2019-04-11T17:18:37.074Z,15.90
2019-04-11T17:21:07.881Z,15.30
2019-04-11T17:23:36.476Z,14.80
2019-04-11T17:26:06.788Z,14.30
2019-04-11T17:28:35.945Z,13.90
2019-04-11T17:31:04.625Z,13.40
2019-04-11T17:33:33.274Z,12.90
2019-04-11T17:36:02.972Z,12.60
2019-04-11T17:38:31.775Z,12.20
2019-04-11T17:41:00.360Z,12.00
2019-04-11T17:43:28.937Z,11.90
2019-04-11T17:45:57.727Z,11.60
2019-04-11T17:48:26.431Z,11.40
2019-04-11T17:50:55.067Z,11.30
2019-04-11T17:53:24.879Z,11.10
2019-04-11T17:55:54.198Z,10.90
2019-04-11T17:58:26.926Z,10.80
2019-04-11T18:00:55.506Z,10.60
2019-04-11T18:03:24.108Z,10.50
2019-04-11T18:05:52.689Z,10.30
2019-04-11T18:08:21.264Z,10.20
2019-04-11T18:10:50.207Z,10.00
2019-04-11T18:13:18.862Z,9.80
2019-04-11T18:15:47.459Z,9.80
2019-04-11T18:18:16.353Z,9.70
2019-04-11T18:20:45.084Z,9.60
2019-04-11T18:23:13.727Z,9.50
2019-04-11T18:25:42.368Z,9.40
2019-04-11T18:28:11.019Z,9.30
2019-04-11T18:30:39.583Z,9.20
2019-04-11T18:33:08.242Z,9.10
2019-04-11T18:35:36.819Z,9.00
2019-04-11T18:38:05.453Z,8.90
2019-04-11T18:40:34.124Z,8.80
2019-04-11T18:43:02.864Z,8.70
2019-04-11T18:45:31.552Z,8.70
2019-04-11T18:48:00.220Z,8.60
2019-04-11T18:50:29.266Z,8.50
2019-04-11T18:52:59.501Z,8.40
2019-04-11T18:55:28.229Z,8.30
2019-04-11T18:57:56.827Z,8.30
2019-04-11T19:00:26.535Z,8.20
2019-04-11T19:02:55.177Z,8.20
2019-04-11T19:05:28.796Z,8.10
2019-04-11T19:07:54.183Z,8.00
2019-04-11T19:10:22.924Z,8.00
2019-04-11T19:12:51.574Z,7.90
2019-04-11T19:15:20.357Z,7.90
2019-04-11T19:17:49.326Z,7.80
2019-04-11T19:20:19.118Z,7.80
2019-04-11T19:22:48.496Z,7.70
2019-04-11T19:25:17.539Z,7.70
2019-04-11T19:27:49.998Z,7.60
2019-04-11T19:30:16.523Z,7.60
2019-04-11T19:32:45.180Z,7.60
2019-04-11T19:35:13.825Z,7.50
2019-04-11T19:37:42.754Z,7.50
2019-04-11T19:40:16.124Z,7.50
2019-04-11T19:42:42.410Z,7.50
2019-04-11T19:45:11.116Z,7.40
2019-04-11T19:47:39.694Z,7.40
2019-04-11T19:50:08.778Z,7.40
2019-04-11T19:52:45.256Z,7.40
2019-04-11T19:55:19.330Z,7.30
2019-04-11T19:57:48.033Z,7.30
2019-04-11T20:00:16.714Z,7.20
2019-04-11T20:02:45.316Z,7.20
2019-04-11T20:05:13.967Z,7.20
2019-04-11T20:07:42.606Z,7.20
2019-04-11T20:10:11.326Z,7.10
2019-04-11T20:12:39.900Z,7.10
2019-04-11T20:15:08.905Z,7.10
2019-04-11T20:17:44.363Z,7.10
2019-04-11T20:20:08.530Z,7.00
2019-04-11T20:22:39.683Z,7.00
2019-04-11T20:25:07.482Z,7.00
2019-04-11T20:27:36.507Z,7.00
2019-04-11T20:30:08.485Z,7.00
2019-04-11T20:32:37.456Z,7.00
2019-04-11T20:35:09.507Z,6.90
2019-04-11T20:37:39.566Z,6.90
2019-04-11T20:40:07.987Z,6.90
2019-04-11T20:42:36.631Z,6.90
2019-04-11T20:45:07.217Z,6.90
2019-04-11T20:47:35.885Z,6.90
2019-04-11T20:50:07.555Z,6.80
2019-04-11T20:52:36.281Z,6.80
2019-04-11T20:55:08.904Z,6.80
2019-04-11T20:57:36.845Z,6.80
2019-04-11T21:00:12.102Z,6.70
2019-04-11T21:02:38.833Z,6.80
2019-04-11T21:05:07.500Z,6.70
2019-04-11T21:07:36.083Z,6.70
2019-04-11T21:10:05.938Z,6.70
2019-04-11T21:12:36.974Z,6.70
2019-04-11T21:15:07.363Z,6.60
2019-04-11T21:17:35.889Z,6.70
2019-04-11T21:20:07.187Z,6.60
2019-04-11T21:22:35.849Z,6.60
2019-04-11T21:25:06.070Z,6.60
2019-04-11T21:27:34.784Z,6.60
2019-04-11T21:30:04.061Z,6.60
2019-04-11T21:32:32.813Z,6.60
2019-04-11T21:35:02.381Z,6.60
2019-04-11T21:37:31.577Z,6.50
2019-04-11T21:40:00.523Z,6.60
2019-04-11T21:42:29.088Z,6.50
2019-04-11T21:44:57.696Z,6.50
2019-04-11T21:47:26.680Z,6.50
2019-04-11T21:49:55.273Z,6.50
2019-04-11T21:52:24.132Z,6.50
2019-04-11T21:54:52.862Z,6.50
2019-04-11T21:57:22.093Z,6.40
2019-04-11T21:59:52.146Z,6.40
2019-04-11T22:02:24.034Z,6.40
2019-04-11T22:04:51.335Z,6.40
2019-04-11T22:07:19.909Z,6.40
2019-04-11T22:09:48.632Z,6.40
2019-04-11T22:12:17.358Z,6.40
2019-04-11T22:14:46.004Z,6.30
2019-04-11T22:17:15.940Z,6.30
2019-04-11T22:19:45.892Z,6.30
2019-04-11T22:22:15.027Z,6.30
2019-04-11T22:24:44.965Z,6.30
2019-04-11T22:27:13.619Z,6.20
2019-04-11T22:29:42.498Z,6.20
2019-04-11T22:32:11.244Z,6.20
2019-04-11T22:34:41.595Z,6.20
2019-04-11T22:37:10.276Z,6.20
2019-04-11T22:39:38.994Z,6.10
2019-04-11T22:42:07.998Z,6.10
2019-04-11T22:44:38.082Z,6.10
2019-04-11T22:47:08.117Z,6.10
2019-04-11T22:49:39.371Z,6.00
2019-04-11T22:52:07.534Z,6.00
2019-04-11T22:54:36.590Z,6.00
2019-04-11T22:57:05.188Z,6.00
2019-04-11T22:59:33.786Z,5.90
2019-04-11T23:02:16.877Z,5.90
2019-04-11T23:04:46.942Z,5.80
2019-04-11T23:07:15.047Z,5.80
2019-04-11T23:09:43.886Z,5.80
2019-04-11T23:12:12.755Z,5.80
2019-04-11T23:14:45.589Z,5.80
2019-04-11T23:17:14.184Z,5.80
2019-04-11T23:19:44.090Z,5.80
2019-04-11T23:22:13.359Z,5.70
2019-04-11T23:24:42.012Z,5.70
2019-04-11T23:27:10.947Z,5.70
2019-04-11T23:29:39.510Z,5.60
2019-04-11T23:32:08.311Z,5.60
2019-04-11T23:34:36.871Z,5.60
2019-04-11T23:37:05.573Z,5.60
2019-04-11T23:39:34.480Z,5.50
2019-04-11T23:42:03.209Z,5.50
2019-04-11T23:44:31.794Z,5.50
2019-04-11T23:47:00.323Z,5.50
2019-04-11T23:49:28.897Z,5.50
2019-04-11T23:51:57.510Z,5.40
2019-04-11T23:54:28.937Z,5.40
2019-04-11T23:56:56.383Z,5.40
2019-04-11T23:59:24.940Z,5.30
